createdAt,value
2023-06-17T00:01:13.668Z,52.96
2023-06-17T00:03:40.463Z,53.34
2023-06-17T00:06:07.192Z,54.43
2023-06-17T00:08:33.990Z,54.50
2023-06-17T00:11:00.736Z,55.15
2023-06-17T00:13:27.456Z,54.18
2023-06-17T00:15:54.139Z,54.64
2023-06-17T00:18:21.320Z,55.42
2023-06-17T00:20:48.238Z,54.95
2023-06-17T00:23:15.002Z,55.54
2023-06-17T00:25:41.745Z,56.13
2023-06-17T00:28:08.468Z,55.47
2023-06-17T00:30:35.205Z,57.77
2023-06-17T00:33:02.000Z,57.28
2023-06-17T00:35:28.813Z,56.79
2023-06-17T00:37:55.510Z,55.99
2023-06-17T00:40:22.550Z,56.01
2023-06-17T00:42:49.714Z,56.15
2023-06-17T00:45:16.433Z,56.41
2023-06-17T00:47:43.227Z,56.73
2023-06-17T00:50:09.971Z,57.81
2023-06-17T00:52:42.409Z,58.34
2023-06-17T00:55:09.888Z,57.09
2023-06-17T00:57:36.701Z,57.60
2023-06-17T01:00:03.447Z,57.58
2023-06-17T01:02:30.184Z,56.99
2023-06-17T01:04:56.911Z,57.12
2023-06-17T01:07:23.633Z,56.85
2023-06-17T01:09:50.414Z,57.63
2023-06-17T01:12:17.155Z,57.62
2023-06-17T01:14:43.880Z,57.60
2023-06-17T01:17:10.629Z,56.82
2023-06-17T01:19:37.354Z,56.99
2023-06-17T01:22:04.164Z,57.66
2023-06-17T01:24:31.418Z,57.99
2023-06-17T01:26:58.506Z,58.37
2023-06-17T01:29:25.258Z,58.75
2023-06-17T01:31:51.965Z,58.29
2023-06-17T01:34:18.798Z,58.18
2023-06-17T01:36:45.655Z,58.62
2023-06-17T01:39:12.439Z,58.15
2023-06-17T01:41:39.161Z,58.77
2023-06-17T01:44:05.929Z,58.42
2023-06-17T01:46:32.856Z,58.31
2023-06-17T01:48:59.724Z,58.13
2023-06-17T01:51:26.464Z,57.00
2023-06-17T01:53:53.185Z,57.10
2023-06-17T01:56:19.943Z,57.66
2023-06-17T01:58:46.701Z,58.21
2023-06-17T02:01:13.416Z,58.23
2023-06-17T02:03:40.313Z,57.43
2023-06-17T02:06:07.461Z,58.05
2023-06-17T02:08:34.232Z,58.34
2023-06-17T02:11:00.981Z,58.50
2023-06-17T02:13:27.763Z,57.90
2023-06-17T02:15:54.540Z,57.14
2023-06-17T02:18:21.266Z,57.44
2023-06-17T02:20:48.023Z,58.35
2023-06-17T02:23:14.790Z,58.61
2023-06-17T02:25:41.535Z,58.60
2023-06-17T02:28:08.332Z,58.56
2023-06-17T02:30:35.038Z,59.48
2023-06-17T02:33:01.837Z,59.40
2023-06-17T02:35:28.728Z,59.93
2023-06-17T02:37:55.512Z,59.23
2023-06-17T02:40:22.508Z,59.30
2023-06-17T02:42:49.694Z,59.52
2023-06-17T02:45:16.410Z,58.97
2023-06-17T02:47:43.212Z,59.35
2023-06-17T02:50:10.023Z,58.75
2023-06-17T02:52:36.776Z,59.09
2023-06-17T02:55:03.531Z,59.08
2023-06-17T02:57:30.306Z,60.08
2023-06-17T02:59:57.027Z,60.03
2023-06-17T03:02:23.810Z,59.13
2023-06-17T03:04:50.629Z,58.40
2023-06-17T03:07:17.374Z,58.25
2023-06-17T03:09:44.072Z,59.82
2023-06-17T03:12:10.837Z,59.44
2023-06-17T03:14:37.627Z,59.67
2023-06-17T03:17:04.512Z,59.83
2023-06-17T03:19:31.681Z,61.16
2023-06-17T03:21:58.466Z,60.72
2023-06-17T03:24:25.350Z,60.08
2023-06-17T03:26:52.134Z,59.44
2023-06-17T03:29:19.114Z,59.87
2023-06-17T03:31:45.899Z,60.31
2023-06-17T03:34:12.687Z,61.17
2023-06-17T03:36:39.521Z,61.22
2023-06-17T03:39:06.267Z,60.48
2023-06-17T03:41:33.126Z,59.93
2023-06-17T03:43:59.858Z,59.96
2023-06-17T03:46:26.637Z,59.99
2023-06-17T03:48:53.355Z,60.11
2023-06-17T03:51:20.157Z,60.08
2023-06-17T03:53:46.859Z,60.24
2023-06-17T03:56:13.641Z,59.42
2023-06-17T03:58:40.419Z,59.50
2023-06-17T04:01:07.196Z,59.91
2023-06-17T04:03:33.965Z,59.71
2023-06-17T04:06:00.736Z,59.88
2023-06-17T04:08:27.426Z,60.19
2023-06-17T04:10:54.221Z,60.79
2023-06-17T04:13:20.940Z,60.10
2023-06-17T04:15:47.733Z,59.60
2023-06-17T04:18:14.634Z,58.97
2023-06-17T04:20:41.714Z,58.85
2023-06-17T04:23:08.862Z,57.98
2023-06-17T04:25:36.566Z,57.44
2023-06-17T04:28:03.357Z,56.22
2023-06-17T04:30:30.090Z,56.85
2023-06-17T04:32:56.937Z,56.41
2023-06-17T04:35:23.679Z,56.09
2023-06-17T04:37:50.429Z,56.31
2023-06-17T04:40:17.118Z,55.35
2023-06-17T04:42:43.891Z,54.49
2023-06-17T04:45:10.565Z,54.86
2023-06-17T04:47:37.398Z,54.29
2023-06-17T04:50:04.187Z,54.10
2023-06-17T04:52:30.987Z,53.06
2023-06-17T04:54:57.696Z,52.20
2023-06-17T04:57:24.459Z,51.66
2023-06-17T04:59:51.207Z,51.89
2023-06-17T05:02:17.973Z,52.06
2023-06-17T05:04:44.713Z,52.52
2023-06-17T05:07:11.432Z,51.24
2023-06-17T05:09:38.239Z,50.82
2023-06-17T05:12:05.053Z,50.72
2023-06-17T05:14:31.883Z,49.70
2023-06-17T05:16:58.662Z,49.45
2023-06-17T05:19:25.493Z,49.42
2023-06-17T05:21:52.229Z,49.54
2023-06-17T05:24:18.953Z,49.24
2023-06-17T05:26:45.793Z,48.94
2023-06-17T05:29:12.514Z,48.61
2023-06-17T05:31:39.301Z,47.80
2023-06-17T05:34:06.046Z,47.80
2023-06-17T05:36:32.860Z,48.06
2023-06-17T05:38:59.675Z,48.58
2023-06-17T05:41:26.426Z,48.17
2023-06-17T05:43:53.230Z,48.29
2023-06-17T05:46:20.075Z,48.50
2023-06-17T05:48:46.802Z,47.84
2023-06-17T05:51:13.583Z,47.21
2023-06-17T05:53:40.318Z,47.43
2023-06-17T05:56:07.121Z,47.62
2023-06-17T05:58:33.873Z,46.84
2023-06-17T06:01:00.644Z,46.33
2023-06-17T06:03:27.414Z,47.73
2023-06-17T06:05:54.340Z,47.16
2023-06-17T06:08:21.180Z,46.81
2023-06-17T06:10:47.911Z,46.78
2023-06-17T06:13:14.677Z,46.32
2023-06-17T06:15:41.447Z,45.52
2023-06-17T06:18:08.316Z,46.17
2023-06-17T06:20:35.152Z,45.88
2023-06-17T06:23:01.974Z,45.46
2023-06-17T06:25:28.885Z,46.92
2023-06-17T06:27:55.679Z,46.06
2023-06-17T06:30:22.880Z,44.56
2023-06-17T06:32:49.887Z,45.21
2023-06-17T06:35:16.622Z,45.64
2023-06-17T06:37:43.406Z,45.62
2023-06-17T06:40:10.149Z,45.77
2023-06-17T06:42:36.935Z,45.13
2023-06-17T06:45:03.724Z,45.41
2023-06-17T06:47:30.489Z,45.75
2023-06-17T06:49:57.228Z,46.26
2023-06-17T06:52:24.054Z,46.01
2023-06-17T06:54:50.766Z,46.46
2023-06-17T06:57:17.493Z,46.48
2023-06-17T06:59:44.252Z,46.33
2023-06-17T07:02:10.952Z,46.70
2023-06-17T07:04:37.913Z,46.32
2023-06-17T07:07:04.729Z,46.65
2023-06-17T07:09:31.475Z,46.58
2023-06-17T07:11:58.283Z,46.72
2023-06-17T07:14:25.068Z,46.42
2023-06-17T07:16:51.955Z,46.28
2023-06-17T07:19:18.807Z,46.63
2023-06-17T07:21:45.516Z,47.35
2023-06-17T07:24:12.307Z,46.83
2023-06-17T07:26:39.040Z,46.64
2023-06-17T07:29:05.848Z,46.33
2023-06-17T07:31:32.734Z,46.91
2023-06-17T07:34:00.333Z,46.62
2023-06-17T07:36:27.365Z,46.26
2023-06-17T07:38:54.167Z,46.27
2023-06-17T07:41:20.936Z,46.59
2023-06-17T07:43:47.761Z,46.43
2023-06-17T07:46:14.542Z,45.82
2023-06-17T07:48:41.378Z,45.61
2023-06-17T07:51:08.110Z,46.10
2023-06-17T07:53:34.866Z,46.52
2023-06-17T07:56:01.609Z,45.50
2023-06-17T07:58:28.360Z,47.18
2023-06-17T08:00:55.106Z,45.99
2023-06-17T08:03:22.118Z,47.02
2023-06-17T08:05:49.172Z,46.70
2023-06-17T08:08:15.940Z,44.43
2023-06-17T08:10:42.711Z,43.94
2023-06-17T08:13:09.394Z,43.74
2023-06-17T08:15:36.336Z,42.27
2023-06-17T08:18:03.268Z,42.56
2023-06-17T08:20:30.184Z,41.47
2023-06-17T08:22:57.056Z,39.97
2023-06-17T08:25:23.794Z,39.96
2023-06-17T08:27:50.601Z,41.08
2023-06-17T08:30:17.517Z,39.63
2023-06-17T08:32:44.423Z,37.39
2023-06-17T08:35:11.183Z,38.42
2023-06-17T08:37:37.890Z,37.52
2023-06-17T08:40:04.629Z,37.05
2023-06-17T08:42:31.327Z,37.24
2023-06-17T08:44:58.132Z,37.71
2023-06-17T08:47:24.982Z,38.77
2023-06-17T08:49:51.782Z,38.08
2023-06-17T08:52:18.523Z,37.66
2023-06-17T08:54:45.286Z,38.74
2023-06-17T08:57:12.053Z,37.97
2023-06-17T08:59:38.828Z,37.17
2023-06-17T09:02:05.640Z,37.34
2023-06-17T09:04:32.587Z,38.10
2023-06-17T09:06:59.644Z,35.15
2023-06-17T09:09:26.459Z,36.50
2023-06-17T09:11:53.449Z,34.99
2023-06-17T09:14:20.594Z,34.31
2023-06-17T09:16:47.486Z,36.28
2023-06-17T09:19:14.406Z,34.46
2023-06-17T09:21:41.227Z,34.64
2023-06-17T09:24:08.016Z,34.44
2023-06-17T09:26:34.872Z,34.37
2023-06-17T09:29:01.642Z,35.52
2023-06-17T09:31:28.402Z,35.86
2023-06-17T09:33:55.110Z,35.76
2023-06-17T09:36:21.861Z,35.09
2023-06-17T09:38:48.566Z,34.69
2023-06-17T09:41:15.342Z,34.01
2023-06-17T09:43:42.108Z,34.31
2023-06-17T09:46:08.901Z,32.59
2023-06-17T09:48:35.758Z,32.56
2023-06-17T09:51:02.474Z,32.95
2023-06-17T09:53:29.164Z,33.23
2023-06-17T09:55:55.923Z,32.90
2023-06-17T09:58:22.657Z,32.14
2023-06-17T10:00:49.394Z,32.74
2023-06-17T10:03:16.342Z,31.43
2023-06-17T10:05:43.509Z,31.96
2023-06-17T10:08:10.260Z,31.06
2023-06-17T10:10:37.082Z,32.36
2023-06-17T10:13:03.927Z,31.97
2023-06-17T10:15:30.677Z,31.86
2023-06-17T10:17:57.436Z,31.75
2023-06-17T10:20:24.703Z,32.51
2023-06-17T10:22:51.723Z,32.32
2023-06-17T10:25:18.481Z,32.39
2023-06-17T10:27:45.174Z,31.09
2023-06-17T10:30:11.935Z,32.44
2023-06-17T10:32:38.760Z,31.72
2023-06-17T10:35:05.608Z,31.48
2023-06-17T10:37:32.385Z,31.80
2023-06-17T10:39:59.176Z,31.20
2023-06-17T10:42:25.924Z,32.41
2023-06-17T10:44:52.646Z,31.40
2023-06-17T10:47:19.448Z,32.04
2023-06-17T10:49:46.209Z,31.17
2023-06-17T10:52:12.927Z,29.88
2023-06-17T10:54:39.734Z,31.09
2023-06-17T10:57:06.476Z,30.40
2023-06-17T10:59:33.355Z,30.27
2023-06-17T11:02:00.413Z,30.45
2023-06-17T11:04:27.136Z,30.66
2023-06-17T11:06:53.910Z,29.83
2023-06-17T11:09:20.628Z,30.13
2023-06-17T11:11:47.391Z,31.02
2023-06-17T11:14:14.165Z,28.61
2023-06-17T11:16:40.929Z,29.48
2023-06-17T11:19:07.733Z,29.89
2023-06-17T11:21:34.538Z,28.62
2023-06-17T11:24:01.600Z,28.74
2023-06-17T11:26:28.525Z,28.01
2023-06-17T11:28:55.263Z,29.39
2023-06-17T11:31:22.207Z,28.57
2023-06-17T11:33:49.278Z,29.19
2023-06-17T11:36:16.018Z,28.70
2023-06-17T11:38:42.812Z,28.46
2023-06-17T11:41:09.650Z,29.83
2023-06-17T11:43:36.341Z,30.06
2023-06-17T11:46:03.323Z,30.29
2023-06-17T11:48:30.522Z,29.87
2023-06-17T11:50:57.253Z,29.52
2023-06-17T11:53:24.053Z,30.22
2023-06-17T11:55:50.789Z,29.34
2023-06-17T11:58:17.599Z,29.99
2023-06-17T12:00:44.399Z,30.93
2023-06-17T12:03:12.871Z,29.82
2023-06-17T12:05:40.790Z,29.32
2023-06-17T12:08:07.546Z,29.65
2023-06-17T12:10:34.247Z,30.71
2023-06-17T12:13:01.041Z,26.97
2023-06-17T12:15:36.419Z,28.68
2023-06-17T12:18:04.292Z,28.98
2023-06-17T12:20:31.123Z,28.81
2023-06-17T12:22:57.849Z,29.08
2023-06-17T12:25:24.808Z,28.92
2023-06-17T12:27:52.148Z,30.65
2023-06-17T12:30:18.865Z,30.71
2023-06-17T12:32:45.666Z,29.80
2023-06-17T12:35:12.412Z,29.64
2023-06-17T12:37:39.155Z,30.46
2023-06-17T12:40:05.932Z,31.82
2023-06-17T12:42:32.749Z,32.58
2023-06-17T12:44:59.555Z,31.76
2023-06-17T12:47:26.330Z,33.03
2023-06-17T12:49:53.139Z,31.96
2023-06-17T12:52:19.913Z,31.75
2023-06-17T12:54:46.683Z,31.98
2023-06-17T12:57:15.657Z,31.36
2023-06-17T12:59:42.817Z,30.98
2023-06-17T13:02:09.618Z,31.71
2023-06-17T13:04:36.440Z,30.88
2023-06-17T13:07:03.252Z,31.25
2023-06-17T13:09:30.063Z,31.84
2023-06-17T13:11:56.748Z,32.74
2023-06-17T13:14:23.522Z,31.05
2023-06-17T13:16:50.290Z,30.81
2023-06-17T13:19:17.398Z,29.56
2023-06-17T13:21:44.224Z,31.19
2023-06-17T13:24:11.009Z,29.75
2023-06-17T13:26:37.833Z,29.16
2023-06-17T13:29:05.383Z,29.29
2023-06-17T13:31:32.173Z,29.25
2023-06-17T13:33:58.953Z,29.72
2023-06-17T13:36:25.718Z,31.44
2023-06-17T13:38:52.484Z,29.86
2023-06-17T13:41:19.196Z,30.69
2023-06-17T13:43:45.978Z,30.96
2023-06-17T13:46:12.780Z,31.82
2023-06-17T13:48:39.581Z,31.63
2023-06-17T13:51:06.389Z,29.87
2023-06-17T13:53:33.232Z,30.16
2023-06-17T13:55:59.984Z,28.79
2023-06-17T13:58:26.796Z,29.55
2023-06-17T14:00:53.547Z,29.48
2023-06-17T14:03:20.911Z,28.57
2023-06-17T14:05:47.902Z,28.95
2023-06-17T14:08:14.802Z,30.29
2023-06-17T14:10:41.613Z,30.35
2023-06-17T14:13:08.448Z,30.27
2023-06-17T14:15:35.225Z,29.92
2023-06-17T14:18:02.086Z,29.77
2023-06-17T14:20:28.888Z,28.41
2023-06-17T14:22:55.674Z,28.27
2023-06-17T14:25:22.412Z,28.92
2023-06-17T14:27:49.204Z,30.05
2023-06-17T14:30:15.953Z,28.83
2023-06-17T14:32:42.802Z,28.01
2023-06-17T14:35:09.841Z,27.74
2023-06-17T14:37:36.583Z,28.65
2023-06-17T14:40:03.347Z,27.01
2023-06-17T14:42:30.094Z,27.45
2023-06-17T14:44:56.856Z,27.43
2023-06-17T14:47:23.807Z,26.68
2023-06-17T14:49:50.787Z,27.02
2023-06-17T14:52:17.795Z,28.05
2023-06-17T14:54:44.554Z,27.27
2023-06-17T14:57:11.288Z,27.49
2023-06-17T14:59:37.995Z,28.79
2023-06-17T15:02:04.753Z,29.04
2023-06-17T15:04:31.632Z,29.92
2023-06-17T15:06:58.459Z,30.12
2023-06-17T15:09:25.254Z,32.84
2023-06-17T15:11:51.962Z,30.17
2023-06-17T15:14:18.709Z,30.58
2023-06-17T15:16:45.539Z,30.29
2023-06-17T15:19:12.412Z,30.27
2023-06-17T15:21:39.203Z,29.23
2023-06-17T15:24:05.968Z,29.33
2023-06-17T15:26:32.788Z,29.80
2023-06-17T15:28:59.497Z,28.82
2023-06-17T15:31:26.283Z,28.46
2023-06-17T15:33:53.063Z,29.30
2023-06-17T15:36:19.752Z,29.32
2023-06-17T15:38:46.598Z,29.35
2023-06-17T15:41:13.389Z,30.11
2023-06-17T15:43:40.212Z,30.51
2023-06-17T15:46:07.114Z,29.40
2023-06-17T15:48:33.989Z,28.72
2023-06-17T15:51:00.739Z,29.17
2023-06-17T15:53:27.502Z,29.68
2023-06-17T15:55:54.304Z,29.50
2023-06-17T15:58:21.023Z,28.75
2023-06-17T16:00:47.826Z,28.74
2023-06-17T16:03:14.524Z,28.75
2023-06-17T16:05:41.311Z,26.88
2023-06-17T16:08:08.031Z,28.36
2023-06-17T16:10:34.804Z,28.15
2023-06-17T16:13:01.559Z,27.81
2023-06-17T16:15:28.269Z,28.31
2023-06-17T16:17:55.050Z,28.45
2023-06-17T16:20:22.005Z,28.53
2023-06-17T16:22:49.150Z,28.17
2023-06-17T16:25:15.886Z,27.92
2023-06-17T16:27:42.655Z,26.98
2023-06-17T16:30:09.478Z,27.06
2023-06-17T16:32:36.274Z,27.75
2023-06-17T16:35:03.027Z,27.64
2023-06-17T16:37:29.841Z,29.60
2023-06-17T16:39:56.615Z,28.62
2023-06-17T16:42:23.328Z,28.69
2023-06-17T16:44:50.061Z,28.67
2023-06-17T16:47:16.821Z,28.40
2023-06-17T16:49:43.712Z,29.03
2023-06-17T16:52:10.459Z,29.48
2023-06-17T16:54:37.274Z,29.52
2023-06-17T16:57:04.021Z,29.54
2023-06-17T16:59:30.780Z,29.24
2023-06-17T17:01:57.548Z,28.95
2023-06-17T17:04:24.306Z,30.13
2023-06-17T17:06:51.104Z,30.41
2023-06-17T17:09:17.883Z,30.37
2023-06-17T17:11:44.626Z,28.36
2023-06-17T17:14:11.388Z,28.72
2023-06-17T17:16:38.108Z,28.87
2023-06-17T17:19:04.917Z,28.39
2023-06-17T17:21:31.707Z,29.48
2023-06-17T17:23:58.573Z,29.62
2023-06-17T17:26:25.339Z,31.00
2023-06-17T17:28:52.135Z,31.46
2023-06-17T17:31:18.884Z,32.80
2023-06-17T17:33:45.719Z,31.31
2023-06-17T17:36:12.552Z,30.36
2023-06-17T17:38:39.336Z,32.65
2023-06-17T17:41:06.044Z,32.26
2023-06-17T17:43:32.781Z,32.83
2023-06-17T17:45:59.613Z,33.51
2023-06-17T17:48:26.571Z,34.40
2023-06-17T17:50:53.377Z,34.61
2023-06-17T17:53:20.122Z,35.76
2023-06-17T17:55:46.922Z,35.55
2023-06-17T17:58:13.707Z,36.59
2023-06-17T18:00:40.518Z,36.67
2023-06-17T18:03:07.440Z,36.57
2023-06-17T18:05:34.292Z,36.97
2023-06-17T18:08:01.009Z,36.21
2023-06-17T18:10:27.827Z,36.56
2023-06-17T18:12:54.679Z,36.87
2023-06-17T18:15:21.506Z,37.42
2023-06-17T18:17:48.357Z,39.50
2023-06-17T18:20:15.108Z,38.22
2023-06-17T18:22:41.930Z,39.21
2023-06-17T18:25:08.676Z,40.52
2023-06-17T18:27:36.829Z,40.10
2023-06-17T18:30:04.426Z,41.17
2023-06-17T18:32:31.517Z,40.92
2023-06-17T18:34:58.627Z,39.69
2023-06-17T18:37:25.437Z,39.68
2023-06-17T18:39:52.241Z,39.84
2023-06-17T18:42:19.066Z,40.39
2023-06-17T18:44:45.848Z,40.12
2023-06-17T18:47:12.628Z,40.54
2023-06-17T18:49:39.724Z,41.30
2023-06-17T18:52:06.456Z,42.38
2023-06-17T18:54:33.202Z,42.29
2023-06-17T18:56:59.958Z,42.16
2023-06-17T18:59:26.724Z,42.31
2023-06-17T19:01:53.939Z,42.84
2023-06-17T19:04:20.715Z,42.83
2023-06-17T19:06:47.483Z,43.87
2023-06-17T19:09:14.295Z,44.58
2023-06-17T19:11:41.111Z,44.46
2023-06-17T19:14:07.891Z,44.05
2023-06-17T19:16:34.664Z,43.49
2023-06-17T19:19:01.499Z,43.98
2023-06-17T19:21:28.272Z,44.32
2023-06-17T19:23:55.077Z,44.72
2023-06-17T19:26:21.925Z,45.39
2023-06-17T19:28:48.613Z,43.59
2023-06-17T19:31:15.470Z,43.73
2023-06-17T19:33:42.276Z,43.82
2023-06-17T19:36:09.055Z,43.17
2023-06-17T19:38:35.794Z,43.05
2023-06-17T19:41:02.587Z,43.88
2023-06-17T19:43:29.360Z,44.03
2023-06-17T19:45:56.180Z,43.37
2023-06-17T19:48:23.007Z,43.65
2023-06-17T19:50:49.859Z,44.25
2023-06-17T19:53:16.615Z,44.00
2023-06-17T19:55:43.419Z,44.22
2023-06-17T19:58:10.209Z,44.41
2023-06-17T20:00:36.956Z,43.87
2023-06-17T20:03:03.794Z,43.82
2023-06-17T20:05:30.978Z,44.00
2023-06-17T20:07:57.752Z,44.30
2023-06-17T20:10:24.666Z,44.73
2023-06-17T20:12:51.620Z,44.82
2023-06-17T20:15:18.367Z,45.28
2023-06-17T20:17:45.128Z,45.62
2023-06-17T20:20:14.086Z,46.43
2023-06-17T20:22:42.006Z,46.20
2023-06-17T20:25:08.799Z,46.41
2023-06-17T20:27:35.628Z,46.65
2023-06-17T20:30:02.370Z,46.99
2023-06-17T20:32:29.100Z,46.71
2023-06-17T20:34:55.861Z,46.66
2023-06-17T20:37:22.603Z,47.62
2023-06-17T20:39:49.353Z,47.76
2023-06-17T20:42:16.112Z,47.39
2023-06-17T20:44:42.930Z,48.01
2023-06-17T20:47:09.687Z,47.28
2023-06-17T20:49:36.430Z,48.29
2023-06-17T20:52:03.165Z,48.64
2023-06-17T20:54:29.933Z,48.51
2023-06-17T20:56:56.720Z,48.53
2023-06-17T20:59:23.445Z,48.58
2023-06-17T21:01:50.276Z,48.76
2023-06-17T21:04:17.036Z,49.00
2023-06-17T21:06:43.780Z,49.12
2023-06-17T21:09:10.490Z,49.92
2023-06-17T21:11:37.273Z,50.08
2023-06-17T21:14:04.088Z,50.35
2023-06-17T21:16:30.877Z,50.07
2023-06-17T21:18:57.695Z,49.76
2023-06-17T21:21:24.456Z,50.01
2023-06-17T21:23:51.243Z,51.13
2023-06-17T21:26:18.002Z,50.66
2023-06-17T21:28:44.776Z,51.14
2023-06-17T21:31:11.550Z,51.02
2023-06-17T21:33:38.344Z,51.03
2023-06-17T21:36:05.065Z,51.36
2023-06-17T21:38:31.772Z,51.75
2023-06-17T21:40:58.668Z,51.19
2023-06-17T21:43:25.489Z,51.66
2023-06-17T21:45:52.266Z,51.67
2023-06-17T21:48:19.086Z,52.26
2023-06-17T21:50:45.852Z,52.07
2023-06-17T21:53:12.603Z,52.03
2023-06-17T21:55:39.369Z,51.91
2023-06-17T21:58:06.178Z,51.76
2023-06-17T22:00:32.926Z,52.11
2023-06-17T22:02:59.784Z,52.19
2023-06-17T22:05:26.807Z,52.83
2023-06-17T22:07:53.578Z,53.04
2023-06-17T22:10:20.675Z,53.40
2023-06-17T22:12:47.801Z,53.22
2023-06-17T22:15:14.558Z,54.05
2023-06-17T22:17:41.371Z,52.95
2023-06-17T22:20:08.146Z,53.00
2023-06-17T22:22:34.923Z,52.96
2023-06-17T22:25:01.706Z,53.41
2023-06-17T22:27:28.427Z,54.22
2023-06-17T22:29:55.250Z,53.45
2023-06-17T22:32:22.019Z,54.36
2023-06-17T22:34:48.800Z,53.78
2023-06-17T22:37:15.627Z,53.57
2023-06-17T22:39:42.415Z,54.58
2023-06-17T22:42:09.144Z,54.06
2023-06-17T22:44:35.886Z,54.88
2023-06-17T22:47:02.792Z,54.85
2023-06-17T22:49:29.613Z,55.33
2023-06-17T22:51:56.388Z,56.07
2023-06-17T22:54:23.105Z,56.15
2023-06-17T22:56:49.840Z,55.82
2023-06-17T22:59:16.615Z,55.50
2023-06-17T23:01:43.324Z,56.00
2023-06-17T23:04:10.084Z,55.38
2023-06-17T23:06:36.765Z,55.91
2023-06-17T23:09:03.521Z,55.73
2023-06-17T23:11:30.361Z,55.87
2023-06-17T23:13:57.114Z,56.02
2023-06-17T23:16:23.945Z,55.91
2023-06-17T23:18:51.012Z,55.52
2023-06-17T23:21:17.781Z,55.66
2023-06-17T23:23:44.625Z,56.11
2023-06-17T23:26:11.379Z,55.90
2023-06-17T23:28:38.223Z,55.86
2023-06-17T23:31:05.011Z,55.70
2023-06-17T23:33:31.788Z,56.19
2023-06-17T23:35:58.568Z,55.75
2023-06-17T23:38:25.332Z,55.82
2023-06-17T23:40:52.138Z,55.78
2023-06-17T23:43:18.920Z,55.54
2023-06-17T23:45:45.627Z,55.43
2023-06-17T23:48:12.473Z,55.89
2023-06-17T23:50:39.300Z,56.41
2023-06-17T23:53:06.292Z,56.24
2023-06-17T23:55:33.252Z,56.36
2023-06-17T23:57:59.983Z,56.25
